createdAt,value
2018-07-07T00:00:34.552Z,99.99
2018-07-07T00:01:34.264Z,99.99
2018-07-07T00:02:34.519Z,99.99
2018-07-07T00:03:34.507Z,99.99
2018-07-07T00:04:34.225Z,99.99
2018-07-07T00:05:34.219Z,96.56
2018-07-07T00:06:34.478Z,93.4
2018-07-07T00:07:34.190Z,90.33
2018-07-07T00:08:34.179Z,90.04
2018-07-07T00:09:34.445Z,89.65
2018-07-07T00:10:34.158Z,88.41
2018-07-07T00:11:34.406Z,87.55
2018-07-07T00:12:34.133Z,88.98
2018-07-07T00:13:34.119Z,86.88
2018-07-07T00:14:34.371Z,85.82
2018-07-07T00:15:34.366Z,85.05
2018-07-07T00:16:34.364Z,84
2018-07-07T00:17:34.335Z,83.91
2018-07-07T00:18:34.329Z,84.77
2018-07-07T00:19:34.049Z,85.63
2018-07-07T00:20:34.041Z,85.72
2018-07-07T00:21:34.027Z,85.72
2018-07-07T00:22:34.012Z,86.88
2018-07-07T00:23:34.271Z,83.81
2018-07-07T00:24:33.995Z,82.27
2018-07-07T00:25:34.240Z,83.23
2018-07-07T00:26:34.240Z,84.77
2018-07-07T00:27:34.221Z,88.17
2018-07-07T00:28:33.941Z,89.08
2018-07-07T00:29:33.929Z,90.28
2018-07-07T00:30:33.921Z,91.62
2018-07-07T00:31:33.964Z,91.91
2018-07-07T00:32:34.159Z,92.1
2018-07-07T00:33:33.888Z,93.15
2018-07-07T00:34:34.145Z,93.92
2018-07-07T00:35:34.128Z,94.26
2018-07-07T00:36:34.114Z,94.79
2018-07-07T00:37:33.837Z,93.82
2018-07-07T00:38:34.096Z,94.69
2018-07-07T00:39:33.815Z,95.26
2018-07-07T00:40:34.070Z,98.53
2018-07-07T00:41:33.794Z,98.82
2018-07-07T00:42:34.068Z,97.86
2018-07-07T00:43:34.032Z,97.95
2018-07-07T00:44:34.023Z,96.89
2018-07-07T00:45:34.012Z,97.76
2018-07-07T00:46:34.000Z,99.39
2018-07-07T00:47:33.723Z,97.47
2018-07-07T00:48:33.716Z,98.43
2018-07-07T00:49:33.972Z,98.91
2018-07-07T00:50:33.958Z,97.76
2018-07-07T00:51:33.681Z,95.75
2018-07-07T00:52:33.666Z,96.32
2018-07-07T00:53:33.922Z,94.79
2018-07-07T00:54:33.718Z,95.46
2018-07-07T00:55:33.636Z,98.72
2018-07-07T00:56:33.883Z,96.22
2018-07-07T00:57:33.871Z,94.88
2018-07-07T00:58:33.865Z,94.59
2018-07-07T00:59:33.853Z,93.54
2018-07-07T01:00:33.575Z,94.98
2018-07-07T01:01:33.828Z,95.75
2018-07-07T01:02:33.818Z,92.48
2018-07-07T01:03:33.817Z,90.95
2018-07-07T01:04:33.792Z,87.4
2018-07-07T01:05:33.784Z,85.58
2018-07-07T01:06:33.784Z,83.47
2018-07-07T01:07:33.758Z,80.97
2018-07-07T01:08:33.484Z,80.49
2018-07-07T01:09:33.898Z,80.01
2018-07-07T01:10:33.471Z,79.05
2018-07-07T01:11:33.450Z,79.63
2018-07-07T01:12:33.704Z,77.71
2018-07-07T01:13:33.693Z,76.84
2018-07-07T01:14:33.681Z,76.37
2018-07-07T01:15:33.666Z,77.13
2018-07-07T01:16:33.657Z,76.46
2018-07-07T01:17:33.379Z,76.37
2018-07-07T01:18:33.634Z,76.07
2018-07-07T01:19:33.360Z,77.33
2018-07-07T01:20:33.345Z,77.51
2018-07-07T01:21:33.340Z,77.8
2018-07-07T01:22:33.589Z,77.8
2018-07-07T01:23:33.574Z,77.8
2018-07-07T01:24:33.300Z,78.09
2018-07-07T01:25:33.292Z,77.9
2018-07-07T01:26:33.277Z,78.38
2018-07-07T01:27:33.536Z,78.28
2018-07-07T01:28:33.520Z,77.71
2018-07-07T01:29:33.504Z,77.51
2018-07-07T01:30:33.231Z,77.42
2018-07-07T01:31:33.488Z,78.09
2018-07-07T01:32:33.477Z,78.09
2018-07-07T01:33:33.462Z,78.09
2018-07-07T01:34:33.460Z,77.51
2018-07-07T01:35:33.177Z,77.51
2018-07-07T01:36:33.435Z,77.71
2018-07-07T01:37:33.154Z,77.61
2018-07-07T01:38:33.141Z,77.13
2018-07-07T01:39:33.398Z,77.04
2018-07-07T01:40:33.381Z,77.42
2018-07-07T01:41:33.372Z,77.42
2018-07-07T01:42:33.410Z,77.61
2018-07-07T01:43:33.346Z,77.61
2018-07-07T01:44:33.349Z,76.56
2018-07-07T01:45:33.526Z,77.33
2018-07-07T01:46:33.056Z,77.51
2018-07-07T01:47:33.301Z,77.23
2018-07-07T01:48:33.294Z,76.94
2018-07-07T01:49:33.276Z,76.94
2018-07-07T01:50:33.272Z,77.71
2018-07-07T01:51:33.253Z,77.51
2018-07-07T01:52:32.977Z,77.42
2018-07-07T01:53:33.229Z,77.42
2018-07-07T01:54:33.221Z,77.51
2018-07-07T01:55:32.945Z,77.61
2018-07-07T01:56:33.200Z,77.33
2018-07-07T01:57:33.184Z,78
2018-07-07T01:58:32.906Z,77.9
2018-07-07T01:59:33.164Z,78.86
2018-07-07T02:00:33.269Z,77.8
2018-07-07T02:01:32.873Z,77.51
2018-07-07T02:02:33.139Z,77.51
2018-07-07T02:03:33.114Z,77.51
2018-07-07T02:04:33.107Z,77.42
2018-07-07T02:05:32.830Z,77.8
2018-07-07T02:06:33.082Z,77.61
2018-07-07T02:07:33.065Z,77.8
2018-07-07T02:08:32.793Z,78.09
2018-07-07T02:09:33.047Z,78.28
2018-07-07T02:10:33.213Z,78.38
2018-07-07T02:11:33.023Z,78.86
2018-07-07T02:12:33.013Z,78.38
2018-07-07T02:13:32.994Z,78
2018-07-07T02:14:32.719Z,78.47
2018-07-07T02:15:32.974Z,78.28
2018-07-07T02:16:32.965Z,78.77
2018-07-07T02:17:32.687Z,77.76
2018-07-07T02:18:32.936Z,77.9
2018-07-07T02:19:32.929Z,77.48
2018-07-07T02:20:32.653Z,77.42
2018-07-07T02:21:32.905Z,78.09
2018-07-07T02:22:32.629Z,78.19
2018-07-07T02:23:32.615Z,79.05
2018-07-07T02:24:32.871Z,79.44
2018-07-07T02:25:32.855Z,80.11
2018-07-07T02:26:32.583Z,79.49
2018-07-07T02:27:32.567Z,79.24
2018-07-07T02:28:32.830Z,79.05
2018-07-07T02:29:32.546Z,79.72
2018-07-07T02:30:32.806Z,79.14
2018-07-07T02:31:32.790Z,78.77
2018-07-07T02:32:32.777Z,78.77
2018-07-07T02:33:32.767Z,79.24
2018-07-07T02:34:32.752Z,79.24
2018-07-07T02:35:32.741Z,78.28
2018-07-07T02:36:32.733Z,78.63
2018-07-07T02:37:32.468Z,77.67
2018-07-07T02:38:32.714Z,78.34
2018-07-07T02:39:32.710Z,77.58
2018-07-07T02:40:32.423Z,78.82
2018-07-07T02:41:32.675Z,79.01
2018-07-07T02:42:32.663Z,77.58
2018-07-07T02:43:32.651Z,77.76
2018-07-07T02:44:32.640Z,76.81
2018-07-07T02:45:32.629Z,77.67
2018-07-07T02:46:32.624Z,77.48
2018-07-07T02:47:32.339Z,77.58
2018-07-07T02:48:32.326Z,77.58
2018-07-07T02:49:32.577Z,78.25
2018-07-07T02:50:32.569Z,78.05
2018-07-07T02:51:32.562Z,78.05
2018-07-07T02:52:32.281Z,78.44
2018-07-07T02:53:32.533Z,78.72
2018-07-07T02:54:32.526Z,79.11
2018-07-07T02:55:32.513Z,78.63
2018-07-07T02:56:32.499Z,79.3
2018-07-07T02:57:32.486Z,78.82
2018-07-07T02:58:32.476Z,79.21
2018-07-07T02:59:32.204Z,80.26
2018-07-07T03:00:32.459Z,81.51
2018-07-07T03:01:32.455Z,80.74
2018-07-07T03:02:32.429Z,82.56
2018-07-07T03:03:32.424Z,81.89
2018-07-07T03:04:32.140Z,82.37
2018-07-07T03:05:32.132Z,81.41
2018-07-07T03:06:32.376Z,81.02
2018-07-07T03:07:32.367Z,80.93
2018-07-07T03:08:32.358Z,81.02
2018-07-07T03:09:32.351Z,81.98
2018-07-07T03:10:32.067Z,82.08
2018-07-07T03:11:32.317Z,82.27
2018-07-07T03:12:32.311Z,82.94
2018-07-07T03:13:32.298Z,83.33
2018-07-07T03:14:32.020Z,84.28
2018-07-07T03:15:32.273Z,84.19
2018-07-07T03:16:32.260Z,84.58
2018-07-07T03:17:32.248Z,84.95
2018-07-07T03:18:32.230Z,84.58
2018-07-07T03:19:32.238Z,84.67
2018-07-07T03:20:32.210Z,84.77
2018-07-07T03:21:32.202Z,85.39
2018-07-07T03:22:31.927Z,85.68
2018-07-07T03:23:31.924Z,86.01
2018-07-07T03:24:31.904Z,87.74
2018-07-07T03:25:32.154Z,86.3
2018-07-07T03:26:31.882Z,88.02
2018-07-07T03:27:31.864Z,87.98
2018-07-07T03:28:31.851Z,88.65
2018-07-07T03:29:32.102Z,88.56
2018-07-07T03:30:32.097Z,88.17
2018-07-07T03:31:31.815Z,87.31
2018-07-07T03:32:32.068Z,88.51
2018-07-07T03:33:32.055Z,88.75
2018-07-07T03:34:32.044Z,89.8
2018-07-07T03:35:31.765Z,89.23
2018-07-07T03:36:31.758Z,89.23
2018-07-07T03:37:32.009Z,89.51
2018-07-07T03:38:31.992Z,91.91
2018-07-07T03:39:31.987Z,90.57
2018-07-07T03:40:31.707Z,91.72
2018-07-07T03:41:31.961Z,92.68
2018-07-07T03:42:31.949Z,92.3
2018-07-07T03:43:31.668Z,92.1
2018-07-07T03:44:31.659Z,92.87
2018-07-07T03:45:31.845Z,94.02
2018-07-07T03:46:31.903Z,94.5
2018-07-07T03:47:31.888Z,94.4
2018-07-07T03:48:31.611Z,95.07
2018-07-07T03:49:31.866Z,96.18
2018-07-07T03:50:31.847Z,97.8
2018-07-07T03:51:31.840Z,98
2018-07-07T03:52:31.823Z,99.72
2018-07-07T03:53:31.545Z,99.99
2018-07-07T03:54:31.805Z,99.24
2018-07-07T03:55:31.796Z,99.24
2018-07-07T03:56:31.774Z,99.99
2018-07-07T03:57:31.765Z,99.99
2018-07-07T03:58:31.752Z,99.99
2018-07-07T03:59:31.741Z,99.82
2018-07-07T04:00:31.724Z,99.48
2018-07-07T04:01:31.716Z,99.24
2018-07-07T04:02:31.441Z,99.99
2018-07-07T04:03:31.689Z,99.99
2018-07-07T04:04:31.418Z,99.53
2018-07-07T04:05:31.401Z,99.99
2018-07-07T04:06:31.651Z,99.99
2018-07-07T04:07:31.640Z,99.99
2018-07-07T04:08:31.629Z,99.99
2018-07-07T04:09:31.622Z,99.99
2018-07-07T04:10:31.610Z,99.99
2018-07-07T04:11:31.325Z,99.99
2018-07-07T04:12:31.313Z,99.99
2018-07-07T04:13:31.305Z,99.99
2018-07-07T04:14:31.291Z,99.99
2018-07-07T04:15:31.544Z,99.99
2018-07-07T04:16:31.267Z,99.99
2018-07-07T04:17:31.515Z,99.99
2018-07-07T04:18:31.243Z,99.99
2018-07-07T04:19:31.233Z,99.99
2018-07-07T04:20:31.487Z,99.99
2018-07-07T04:21:31.210Z,99.99
2018-07-07T04:22:31.463Z,99.99
2018-07-07T04:23:31.444Z,99.99
2018-07-07T04:24:31.430Z,99.99
2018-07-07T04:25:31.419Z,99.99
2018-07-07T04:26:31.407Z,99.99
2018-07-07T04:27:31.396Z,99.99
2018-07-07T04:28:31.382Z,99.99
2018-07-07T04:29:31.367Z,99.99
2018-07-07T04:30:31.431Z,99.99
2018-07-07T04:31:31.347Z,99.99
2018-07-07T04:32:31.335Z,99.99
2018-07-07T04:33:31.318Z,99.99
2018-07-07T04:34:31.043Z,99.99
2018-07-07T04:35:31.036Z,99.99
2018-07-07T04:36:31.284Z,99.99
2018-07-07T04:37:31.007Z,99.99
2018-07-07T04:38:30.993Z,99.99
2018-07-07T04:39:31.244Z,99.99
2018-07-07T04:40:31.237Z,99.99
2018-07-07T04:41:31.218Z,99.99
2018-07-07T04:42:31.211Z,99.99
2018-07-07T04:43:31.204Z,99.99
2018-07-07T04:44:31.188Z,99.99
2018-07-07T04:45:31.171Z,99.99
2018-07-07T04:46:31.162Z,99.99
2018-07-07T04:47:31.148Z,99.99
2018-07-07T04:48:31.135Z,99.99
2018-07-07T04:49:31.121Z,99.99
2018-07-07T04:50:31.113Z,99.99
2018-07-07T04:51:31.095Z,99.99
2018-07-07T04:52:31.210Z,99.99
2018-07-07T04:53:31.071Z,99.99
2018-07-07T04:54:31.065Z,99.99
2018-07-07T04:55:31.045Z,99.99
2018-07-07T04:56:31.031Z,99.99
2018-07-07T04:57:30.758Z,99.99
2018-07-07T04:58:31.012Z,99.99
2018-07-07T04:59:30.995Z,99.99
2018-07-07T05:00:30.720Z,99.99
2018-07-07T05:01:30.975Z,99.99
2018-07-07T05:02:30.962Z,99.99
2018-07-07T05:03:30.946Z,99.99
2018-07-07T05:04:31.043Z,99.99
2018-07-07T05:05:30.710Z,99.99
2018-07-07T05:06:30.914Z,99.99
2018-07-07T05:07:30.635Z,99.99
2018-07-07T05:08:30.628Z,99.99
2018-07-07T05:09:30.884Z,99.99
2018-07-07T05:10:30.597Z,99.99
2018-07-07T05:11:30.850Z,99.99
2018-07-07T05:12:30.837Z,99.99
2018-07-07T05:13:30.823Z,99.99
2018-07-07T05:14:30.816Z,99.99
2018-07-07T05:15:30.833Z,99.99
2018-07-07T05:16:30.525Z,99.99
2018-07-07T05:17:30.781Z,99.99
2018-07-07T05:18:30.499Z,99.99
2018-07-07T05:19:30.752Z,99.99
2018-07-07T05:20:30.743Z,99.99
2018-07-07T05:21:30.735Z,99.99
2018-07-07T05:22:30.717Z,99.99
2018-07-07T05:23:30.443Z,99.99
2018-07-07T05:24:30.429Z,99.99
2018-07-07T05:25:30.415Z,99.99
2018-07-07T05:26:30.402Z,99.99
2018-07-07T05:27:30.655Z,99.99
2018-07-07T05:28:30.643Z,99.99
2018-07-07T05:29:30.368Z,99.99
2018-07-07T05:30:30.354Z,99.99
2018-07-07T05:31:30.602Z,99.99
2018-07-07T05:32:30.597Z,99.99
2018-07-07T05:33:30.316Z,99.99
2018-07-07T05:34:30.571Z,99.99
2018-07-07T05:35:30.554Z,99.99
2018-07-07T05:36:30.540Z,99.99
2018-07-07T05:37:30.529Z,99.99
2018-07-07T05:38:30.521Z,99.99
2018-07-07T05:39:30.507Z,99.99
2018-07-07T05:40:30.496Z,99.99
2018-07-07T05:41:30.486Z,99.99
2018-07-07T05:42:30.207Z,99.99
2018-07-07T05:43:30.190Z,99.99
2018-07-07T05:44:30.445Z,99.99
2018-07-07T05:45:30.372Z,99.99
2018-07-07T05:46:30.420Z,99.99
2018-07-07T05:47:30.410Z,99.99
2018-07-07T05:48:30.138Z,99.99
2018-07-07T05:49:30.123Z,99.99
2018-07-07T05:50:30.108Z,99.99
2018-07-07T05:51:30.362Z,99.99
2018-07-07T05:52:30.355Z,99.99
2018-07-07T05:53:30.338Z,99.99
2018-07-07T05:54:30.061Z,99.99
2018-07-07T05:55:30.313Z,99.99
2018-07-07T05:56:30.304Z,99.99
2018-07-07T05:57:30.129Z,99.99
2018-07-07T05:58:30.281Z,99.99
2018-07-07T05:59:30.005Z,99.99
2018-07-07T06:00:30.256Z,99.99
2018-07-07T06:01:30.241Z,99.99
2018-07-07T06:02:30.230Z,99.99
2018-07-07T06:03:30.221Z,99.99
2018-07-07T06:04:30.210Z,99.99
2018-07-07T06:05:30.198Z,99.99
2018-07-07T06:06:30.185Z,99.99
2018-07-07T06:07:29.910Z,99.99
2018-07-07T06:08:30.160Z,99.99
2018-07-07T06:09:29.890Z,99.99
2018-07-07T06:10:29.876Z,99.99
2018-07-07T06:11:29.863Z,99.99
2018-07-07T06:12:29.860Z,99.99
2018-07-07T06:13:29.842Z,99.99
2018-07-07T06:14:30.339Z,99.99
2018-07-07T06:15:30.081Z,99.99
2018-07-07T06:16:30.071Z,99.99
2018-07-07T06:17:30.074Z,99.99
2018-07-07T06:18:29.782Z,99.99
2018-07-07T06:19:30.034Z,99.99
2018-07-07T06:20:30.026Z,99.99
2018-07-07T06:21:30.011Z,99.99
2018-07-07T06:22:30.008Z,99.99
2018-07-07T06:23:29.997Z,99.99
2018-07-07T06:24:29.979Z,99.99
2018-07-07T06:25:29.968Z,99.99
2018-07-07T06:26:30.112Z,99.99
2018-07-07T06:27:29.954Z,99.99
2018-07-07T06:28:29.671Z,99.99
2018-07-07T06:29:29.927Z,99.99
2018-07-07T06:30:29.650Z,99.99
2018-07-07T06:31:29.902Z,99.99
2018-07-07T06:32:29.631Z,99.99
2018-07-07T06:33:29.621Z,99.99
2018-07-07T06:34:29.605Z,99.99
2018-07-07T06:35:29.861Z,99.99
2018-07-07T06:36:29.587Z,99.99
2018-07-07T06:37:29.974Z,99.99
2018-07-07T06:38:29.824Z,99.99
2018-07-07T06:39:29.820Z,99.99
2018-07-07T06:40:29.803Z,99.99
2018-07-07T06:41:29.795Z,99.99
2018-07-07T06:42:29.781Z,99.99
2018-07-07T06:43:29.774Z,99.99
2018-07-07T06:44:29.764Z,99.99
2018-07-07T06:45:29.484Z,99.99
2018-07-07T06:46:29.741Z,99.99
2018-07-07T06:47:29.741Z,99.99
2018-07-07T06:48:29.719Z,99.99
2018-07-07T06:49:29.714Z,99.99
2018-07-07T06:50:29.703Z,99.99
2018-07-07T06:51:29.423Z,99.99
2018-07-07T06:52:29.683Z,99.99
2018-07-07T06:53:29.663Z,99.99
2018-07-07T06:54:29.653Z,99.99
2018-07-07T06:55:29.642Z,99.99
2018-07-07T06:56:29.369Z,99.99
2018-07-07T06:57:29.363Z,99.99
2018-07-07T06:58:29.617Z,99.99
2018-07-07T06:59:29.623Z,99.99
2018-07-07T07:00:29.337Z,99.99
2018-07-07T07:01:29.328Z,99.99
2018-07-07T07:02:29.318Z,99.88
2018-07-07T07:03:29.349Z,93.67
2018-07-07T07:04:29.567Z,85.47
2018-07-07T07:05:29.559Z,80.26
2018-07-07T07:06:29.624Z,78.17
2018-07-07T07:07:29.271Z,76.47
2018-07-07T07:08:29.527Z,72.16
2018-07-07T07:09:29.524Z,70.56
2018-07-07T07:10:29.511Z,68.17
2018-07-07T07:11:29.502Z,66.08
2018-07-07T07:12:29.487Z,65.3
2018-07-07T07:13:29.483Z,65.2
2018-07-07T07:14:29.470Z,64.85
2018-07-07T07:15:29.460Z,64.11
2018-07-07T07:16:29.455Z,63.34
2018-07-07T07:17:29.233Z,62.85
2018-07-07T07:18:29.454Z,63.24
2018-07-07T07:19:29.438Z,62.88
2018-07-07T07:20:29.427Z,61.62
2018-07-07T07:21:29.419Z,60.46
2018-07-07T07:22:29.407Z,59.39
2018-07-07T07:23:29.403Z,60.85
2018-07-07T07:24:29.398Z,59.2
2018-07-07T07:25:29.124Z,58.42
2018-07-07T07:26:29.401Z,56.87
2018-07-07T07:27:29.115Z,57.75
2018-07-07T07:28:29.378Z,57.36
2018-07-07T07:29:29.375Z,57.26
2018-07-07T07:30:29.102Z,58.81
2018-07-07T07:31:29.360Z,57.09
2018-07-07T07:32:29.093Z,57.19
2018-07-07T07:33:29.352Z,56.41
2018-07-07T07:34:29.085Z,55.87
2018-07-07T07:35:29.078Z,55.77
2018-07-07T07:36:29.343Z,54.36
2018-07-07T07:37:29.341Z,54.39
2018-07-07T07:38:29.066Z,52.59
2018-07-07T07:39:29.332Z,51.65
2018-07-07T07:40:29.330Z,51.29
2018-07-07T07:41:29.322Z,52.02
2018-07-07T07:42:29.055Z,49.8
2018-07-07T07:43:29.052Z,49.63
2018-07-07T07:44:29.316Z,48.88
2018-07-07T07:45:29.518Z,46.85
2018-07-07T07:46:29.309Z,46.68
2018-07-07T07:47:29.308Z,46.88
2018-07-07T07:48:29.303Z,46.6
2018-07-07T07:49:29.035Z,46.72
2018-07-07T07:50:29.298Z,46.33
2018-07-07T07:51:29.302Z,45.36
2018-07-07T07:52:29.032Z,44.98
2018-07-07T07:53:29.296Z,45.47
2018-07-07T07:54:29.297Z,44.52
2018-07-07T07:55:29.030Z,44.54
2018-07-07T07:56:29.028Z,43.66
2018-07-07T07:57:29.291Z,44.13
2018-07-07T07:58:29.023Z,44.05
2018-07-07T07:59:29.285Z,43.56
2018-07-07T08:00:29.286Z,43.37
2018-07-07T08:01:29.020Z,43.98
2018-07-07T08:02:29.016Z,43.88
2018-07-07T08:03:29.328Z,43.58
2018-07-07T08:04:29.282Z,43.88
2018-07-07T08:05:29.278Z,43.21
2018-07-07T08:06:29.282Z,43.52
2018-07-07T08:07:29.288Z,43.13
2018-07-07T08:08:29.013Z,42.57
2018-07-07T08:09:29.020Z,42.86
2018-07-07T08:10:29.279Z,42.45
2018-07-07T08:11:29.282Z,42.86
2018-07-07T08:12:29.013Z,41.98
2018-07-07T08:13:29.284Z,41.09
2018-07-07T08:14:29.019Z,41.49
2018-07-07T08:15:29.285Z,41.39
2018-07-07T08:16:29.285Z,42.45
2018-07-07T08:17:29.286Z,43.62
2018-07-07T08:18:29.280Z,42.86
2018-07-07T08:19:29.017Z,42.08
2018-07-07T08:20:29.281Z,41.78
2018-07-07T08:21:29.284Z,42.55
2018-07-07T08:22:29.347Z,42.84
2018-07-07T08:23:29.286Z,42.15
2018-07-07T08:24:29.285Z,41.08
2018-07-07T08:25:29.287Z,42.05
2018-07-07T08:26:29.293Z,42.66
2018-07-07T08:27:29.026Z,42.27
2018-07-07T08:28:29.376Z,41.88
2018-07-07T08:29:29.028Z,41.86
2018-07-07T08:30:29.298Z,42.82
2018-07-07T08:31:29.295Z,44.46
2018-07-07T08:32:29.293Z,44.37
2018-07-07T08:33:29.295Z,45.52
2018-07-07T08:34:29.443Z,46.82
2018-07-07T08:35:29.032Z,48.63
2018-07-07T08:36:29.393Z,49.66
2018-07-07T08:37:29.309Z,49.99
2018-07-07T08:38:29.036Z,50.09
2018-07-07T08:39:29.037Z,50.85
2018-07-07T08:40:29.037Z,50.58
2018-07-07T08:41:29.040Z,50.87
2018-07-07T08:42:29.309Z,50.68
2018-07-07T08:43:29.303Z,50.46
2018-07-07T08:44:29.038Z,51.21
2018-07-07T08:45:29.037Z,52.36
2018-07-07T08:46:29.037Z,52.92
2018-07-07T08:47:29.296Z,54.25
2018-07-07T08:48:29.031Z,54.8
2018-07-07T08:49:29.411Z,55.75
2018-07-07T08:50:29.027Z,56.4
2018-07-07T08:51:29.024Z,56.89
2018-07-07T08:52:29.286Z,57.06
2018-07-07T08:53:29.284Z,57.42
2018-07-07T08:54:29.284Z,59.06
2018-07-07T08:55:29.276Z,58.94
2018-07-07T08:56:29.008Z,59.23
2018-07-07T08:57:29.272Z,59.49
2018-07-07T08:58:29.272Z,59.88
2018-07-07T08:59:29.261Z,60.07
2018-07-07T09:00:28.993Z,60.94
2018-07-07T09:01:29.253Z,59.94
2018-07-07T09:02:29.252Z,61.3
2018-07-07T09:03:29.268Z,60.17
2018-07-07T09:04:29.247Z,58.65
2018-07-07T09:05:28.979Z,58.8
2018-07-07T09:06:29.250Z,57.6
2018-07-07T09:07:28.975Z,56.36
2018-07-07T09:08:29.239Z,57.21
2018-07-07T09:09:29.257Z,55.78
2018-07-07T09:10:28.976Z,53.69
2018-07-07T09:11:29.238Z,52.84
2018-07-07T09:12:28.972Z,52.48
2018-07-07T09:13:28.973Z,51.95
2018-07-07T09:14:29.246Z,51.36
2018-07-07T09:15:28.970Z,50.7
2018-07-07T09:16:28.974Z,49.66
2018-07-07T09:17:29.238Z,50.8
2018-07-07T09:18:29.240Z,51.58
2018-07-07T09:19:28.983Z,52.44
2018-07-07T09:20:28.981Z,52.7
2018-07-07T09:21:28.977Z,54.13
2018-07-07T09:22:28.976Z,55.08
2018-07-07T09:23:28.982Z,54.57
2018-07-07T09:24:29.333Z,55.51
2018-07-07T09:25:29.238Z,55.51
2018-07-07T09:26:29.245Z,55.98
2018-07-07T09:27:29.243Z,56.72
2018-07-07T09:28:29.246Z,57.4
2018-07-07T09:29:28.975Z,57.79
2018-07-07T09:30:29.246Z,57.21
2018-07-07T09:31:28.977Z,55.68
2018-07-07T09:32:29.250Z,55.15
2018-07-07T09:33:28.978Z,55.74
2018-07-07T09:34:29.237Z,55.83
2018-07-07T09:35:29.243Z,55.51
2018-07-07T09:36:29.238Z,56.65
2018-07-07T09:37:28.976Z,56.43
2018-07-07T09:38:29.242Z,57.6
2018-07-07T09:39:29.244Z,57.47
2018-07-07T09:40:29.239Z,57.01
2018-07-07T09:41:28.977Z,56.52
2018-07-07T09:42:28.976Z,56.46
2018-07-07T09:43:28.983Z,57.43
2018-07-07T09:44:29.240Z,55.68
2018-07-07T09:45:29.175Z,55.71
2018-07-07T09:46:29.239Z,54.47
2018-07-07T09:47:29.242Z,55.54
2018-07-07T09:48:29.235Z,56
2018-07-07T09:49:29.243Z,56.39
2018-07-07T09:50:29.239Z,56.07
2018-07-07T09:51:28.966Z,57.98
2018-07-07T09:52:28.965Z,57.31
2018-07-07T09:53:29.228Z,60.06
2018-07-07T09:54:29.241Z,58.9
2018-07-07T09:55:29.220Z,59.74
2018-07-07T09:56:29.401Z,58.87
2018-07-07T09:57:29.221Z,60.13
2018-07-07T09:58:29.219Z,60.61
2018-07-07T09:59:28.951Z,60.97
2018-07-07T10:00:29.213Z,60.94
2018-07-07T10:01:28.945Z,62.3
2018-07-07T10:02:29.210Z,62.69
2018-07-07T10:03:28.937Z,62.1
2018-07-07T10:04:29.201Z,62.59
2018-07-07T10:05:28.929Z,62.2
2018-07-07T10:06:29.187Z,61.49
2018-07-07T10:07:29.313Z,62.27
2018-07-07T10:08:28.921Z,62.37
2018-07-07T10:09:29.178Z,63.04
2018-07-07T10:10:29.173Z,63.34
2018-07-07T10:11:29.170Z,63.89
2018-07-07T10:12:28.899Z,63.11
2018-07-07T10:13:29.376Z,64.07
2018-07-07T10:14:28.895Z,64.47
2018-07-07T10:15:29.165Z,64.89
2018-07-07T10:16:29.148Z,63.62
2018-07-07T10:17:29.141Z,63.72
2018-07-07T10:18:28.872Z,63.34
2018-07-07T10:19:29.133Z,62.07
2018-07-07T10:20:29.128Z,60.82
2018-07-07T10:21:29.125Z,62.46
2018-07-07T10:22:29.125Z,63.34
2018-07-07T10:23:29.111Z,63.43
2018-07-07T10:24:29.113Z,60.94
2018-07-07T10:25:28.846Z,60.42
2018-07-07T10:26:28.839Z,58.58
2018-07-07T10:27:29.100Z,59.55
2018-07-07T10:28:28.837Z,59.36
2018-07-07T10:29:29.114Z,59.94
2018-07-07T10:30:28.839Z,58.9
2018-07-07T10:31:29.159Z,57.76
2018-07-07T10:32:29.093Z,57.21
2018-07-07T10:33:28.823Z,55.8
2018-07-07T10:34:28.827Z,54.5
2018-07-07T10:35:28.822Z,53.75
2018-07-07T10:36:29.089Z,53.28
2018-07-07T10:37:28.858Z,52.04
2018-07-07T10:38:29.093Z,50.34
2018-07-07T10:39:29.094Z,50.41
2018-07-07T10:40:29.095Z,48.66
2018-07-07T10:41:29.096Z,49.61
2018-07-07T10:42:29.096Z,49.73
2018-07-07T10:43:29.103Z,49.95
2018-07-07T10:44:29.118Z,48.44
2018-07-07T10:45:28.961Z,48.34
2018-07-07T10:46:29.110Z,46.8
2018-07-07T10:47:29.212Z,47.66
2018-07-07T10:48:29.117Z,47.46
2018-07-07T10:49:29.145Z,46.89
2018-07-07T10:50:29.130Z,47.02
2018-07-07T10:51:28.865Z,48.02
2018-07-07T10:52:29.136Z,46.57
2018-07-07T10:53:28.869Z,44.56
2018-07-07T10:54:29.143Z,44.17
2018-07-07T10:55:28.886Z,44.17
2018-07-07T10:56:29.149Z,44.83
2018-07-07T10:57:29.155Z,44.13
2018-07-07T10:58:29.157Z,45.32
2018-07-07T10:59:28.900Z,44.07
2018-07-07T11:00:29.174Z,43.6
2018-07-07T11:01:29.178Z,44.48
2018-07-07T11:02:29.251Z,44.38
2018-07-07T11:03:29.187Z,43.41
2018-07-07T11:04:28.927Z,43.77
2018-07-07T11:05:28.933Z,45.17
2018-07-07T11:06:29.212Z,44.09
2018-07-07T11:07:28.956Z,44.58
2018-07-07T11:08:28.957Z,43.62
2018-07-07T11:09:28.959Z,43.33
2018-07-07T11:10:29.224Z,44.12
2018-07-07T11:11:29.235Z,44.02
2018-07-07T11:12:28.977Z,43.33
2018-07-07T11:13:29.252Z,43.9
2018-07-07T11:14:29.248Z,43.7
2018-07-07T11:15:29.261Z,44.38
2018-07-07T11:16:29.264Z,42.55
2018-07-07T11:17:29.272Z,42.94
2018-07-07T11:18:29.016Z,43.72
2018-07-07T11:19:29.283Z,41.98
2018-07-07T11:20:29.288Z,41.27
2018-07-07T11:21:29.030Z,41
2018-07-07T11:22:29.035Z,41.19
2018-07-07T11:23:29.049Z,39.72
2018-07-07T11:24:29.315Z,40.61
2018-07-07T11:25:29.324Z,41.39
2018-07-07T11:26:29.338Z,41.09
2018-07-07T11:27:29.075Z,41.08
2018-07-07T11:28:29.081Z,41.09
2018-07-07T11:29:29.083Z,41.56
2018-07-07T11:30:29.369Z,40.41
2018-07-07T11:31:29.099Z,41.49
2018-07-07T11:32:29.118Z,40.7
2018-07-07T11:33:29.380Z,40.7
2018-07-07T11:34:29.121Z,42.74
2018-07-07T11:35:29.396Z,40.7
2018-07-07T11:36:29.241Z,41.49
2018-07-07T11:37:29.405Z,41
2018-07-07T11:38:29.413Z,41.11
2018-07-07T11:39:29.154Z,42.88
2018-07-07T11:40:29.435Z,41.51
2018-07-07T11:41:29.170Z,40.55
2018-07-07T11:42:29.183Z,40.45
2018-07-07T11:43:29.184Z,40.86
2018-07-07T11:44:29.457Z,39.6
2018-07-07T11:45:29.666Z,40.48
2018-07-07T11:46:29.477Z,39.5
2018-07-07T11:47:29.217Z,38.26
2018-07-07T11:48:29.223Z,39.84
2018-07-07T11:49:29.228Z,39.64
2018-07-07T11:50:29.592Z,38.76
2018-07-07T11:51:29.243Z,38.38
2018-07-07T11:52:29.253Z,37.4
2018-07-07T11:53:29.523Z,39.54
2018-07-07T11:54:29.536Z,38.46
2018-07-07T11:55:29.541Z,38.26
2018-07-07T11:56:29.276Z,38.93
2018-07-07T11:57:29.288Z,40.64
2018-07-07T11:58:29.560Z,40.23
2018-07-07T11:59:29.620Z,40.23
2018-07-07T12:00:29.572Z,40.13
2018-07-07T12:01:29.314Z,41.11
2018-07-07T12:02:29.319Z,40.53
2018-07-07T12:03:29.593Z,41.8
2018-07-07T12:04:29.715Z,41.98
2018-07-07T12:05:29.344Z,41.02
2018-07-07T12:06:29.349Z,41.14
2018-07-07T12:07:29.633Z,40.37
2018-07-07T12:08:29.425Z,40.37
2018-07-07T12:09:29.636Z,38.7
2018-07-07T12:10:29.387Z,40.06
2018-07-07T12:11:29.889Z,41.72
2018-07-07T12:12:29.657Z,39.95
2018-07-07T12:13:29.671Z,39.95
2018-07-07T12:14:29.676Z,39.56
2018-07-07T12:15:29.414Z,39
2018-07-07T12:16:29.426Z,39.86
2018-07-07T12:17:29.869Z,39.98
2018-07-07T12:18:29.698Z,40.19
2018-07-07T12:19:29.445Z,38.64
2018-07-07T12:20:29.454Z,38.34
2018-07-07T12:21:29.722Z,38.64
2018-07-07T12:22:29.473Z,38.23
2018-07-07T12:23:29.742Z,37.44
2018-07-07T12:24:29.749Z,39.32
2018-07-07T12:25:29.751Z,37.95
2018-07-07T12:26:29.494Z,38.74
2018-07-07T12:27:29.770Z,39.62
2018-07-07T12:28:29.772Z,39.11
2018-07-07T12:29:29.518Z,39.98
2018-07-07T12:30:29.791Z,39.88
2018-07-07T12:31:30.000Z,40.19
2018-07-07T12:32:29.799Z,39.9
2018-07-07T12:33:29.807Z,39.13
2018-07-07T12:34:29.822Z,39.48
2018-07-07T12:35:29.832Z,39.47
2018-07-07T12:36:29.566Z,40.55
2018-07-07T12:37:29.843Z,39.94
2018-07-07T12:38:29.848Z,40.94
2018-07-07T12:39:29.854Z,41.06
2018-07-07T12:40:29.992Z,39.21
2018-07-07T12:41:29.604Z,39.92
2018-07-07T12:42:29.612Z,38.84
2018-07-07T12:43:29.648Z,38.68
2018-07-07T12:44:29.891Z,38.1
2018-07-07T12:45:29.641Z,37.61
2018-07-07T12:46:29.639Z,37.1
2018-07-07T12:47:29.650Z,38.09
2018-07-07T12:48:29.654Z,38.07
2018-07-07T12:49:29.926Z,38.66
2018-07-07T12:50:29.933Z,38.07
2018-07-07T12:51:29.937Z,39.05
2018-07-07T12:52:29.948Z,38.26
2018-07-07T12:53:29.691Z,38.85
2018-07-07T12:54:29.700Z,38.15
2018-07-07T12:55:29.984Z,39.92